createdAt,value
2019-02-19T00:01:39.938Z,100488.97
2019-02-19T00:04:09.234Z,100481.13
2019-02-19T00:06:36.715Z,100478.95
2019-02-19T00:09:07.710Z,100475.47
2019-02-19T00:11:34.842Z,100475.92
2019-02-19T00:14:06.174Z,100474.20
2019-02-19T00:16:37.494Z,100463.28
2019-02-19T00:19:07.243Z,100465.05
2019-02-19T00:21:34.339Z,100464.69
2019-02-19T00:24:04.031Z,100455.55
2019-02-19T00:26:33.645Z,100456.45
2019-02-19T00:29:02.844Z,100456.91
2019-02-19T00:31:30.021Z,100458.27
2019-02-19T00:33:57.144Z,100460.48
2019-02-19T00:36:31.492Z,100454.37
2019-02-19T00:39:04.094Z,100454.37
2019-02-19T00:41:31.222Z,100451.29
2019-02-19T00:44:03.375Z,100446.94
2019-02-19T00:46:33.351Z,100440.78
2019-02-19T00:49:02.875Z,100431.67
2019-02-19T00:51:35.259Z,100428.59
2019-02-19T00:54:02.372Z,100415.52
2019-02-19T00:56:39.025Z,100407.27
2019-02-19T00:59:11.870Z,100402.48
2019-02-19T01:01:42.525Z,100397.69
2019-02-19T01:04:15.221Z,100393.73
2019-02-19T01:06:44.088Z,100396.37
2019-02-19T01:09:11.445Z,100396.00
2019-02-19T01:11:38.642Z,100385.95
2019-02-19T01:14:11.622Z,100372.42
2019-02-19T01:16:41.666Z,100368.06
2019-02-19T01:19:16.368Z,100367.17
2019-02-19T01:21:48.292Z,100359.74
2019-02-19T01:24:17.250Z,100351.45
2019-02-19T01:26:47.399Z,100352.78
2019-02-19T01:29:15.872Z,100348.84
2019-02-19T01:31:52.166Z,100338.78
2019-02-19T01:34:19.451Z,100338.29
2019-02-19T01:36:53.647Z,100326.47
2019-02-19T01:39:23.113Z,100316.87
2019-02-19T01:41:50.145Z,100311.67
2019-02-19T01:44:22.594Z,100313.44
2019-02-19T01:46:50.885Z,100314.34
2019-02-19T01:49:17.959Z,100312.98
2019-02-19T01:51:45.133Z,100307.33
2019-02-19T01:54:14.794Z,100308.64
2019-02-19T01:56:44.456Z,100296.41
2019-02-19T01:59:11.556Z,100299.50
2019-02-19T02:01:38.666Z,100296.46
2019-02-19T02:04:05.813Z,100289.91
2019-02-19T02:06:32.990Z,100284.70
2019-02-19T02:09:04.587Z,100279.45
2019-02-19T02:11:35.912Z,100272.03
2019-02-19T02:14:03.154Z,100258.50
2019-02-19T02:16:35.347Z,100256.78
2019-02-19T02:19:05.230Z,100250.27
2019-02-19T02:21:32.999Z,100253.75
2019-02-19T02:24:00.147Z,100250.23
2019-02-19T02:26:30.835Z,100251.53
2019-02-19T02:28:57.901Z,100241.48
2019-02-19T02:31:25.043Z,100231.89
2019-02-19T02:33:53.206Z,100223.17
2019-02-19T02:36:23.431Z,100223.17
2019-02-19T02:38:52.285Z,100209.63
2019-02-19T02:41:23.701Z,100214.88
2019-02-19T02:43:53.315Z,100208.33
2019-02-19T02:46:22.906Z,100207.01
2019-02-19T02:48:57.184Z,100207.01
2019-02-19T02:51:24.482Z,100196.06
2019-02-19T02:53:53.238Z,100193.44
2019-02-19T02:56:22.982Z,100192.17
2019-02-19T02:58:54.632Z,100183.44
2019-02-19T03:01:27.488Z,100181.72
2019-02-19T03:04:00.002Z,100178.20
2019-02-19T03:06:36.309Z,100178.25
2019-02-19T03:09:06.775Z,100172.15
2019-02-19T03:11:38.086Z,100165.18
2019-02-19T03:14:08.215Z,100161.70
2019-02-19T03:16:35.535Z,100159.52
2019-02-19T03:19:11.967Z,100155.09
2019-02-19T03:21:46.227Z,100142.42
2019-02-19T03:24:15.842Z,100142.47
2019-02-19T03:26:45.661Z,100144.59
2019-02-19T03:29:13.522Z,100141.09
2019-02-19T03:31:49.804Z,100144.12
2019-02-19T03:34:19.035Z,100134.48
2019-02-19T03:36:50.931Z,100130.10
2019-02-19T03:39:26.937Z,100127.88
2019-02-19T03:41:56.696Z,100116.52
2019-02-19T03:44:29.433Z,100106.83
2019-02-19T03:46:58.253Z,100107.67
2019-02-19T03:49:30.442Z,100104.59
2019-02-19T03:51:57.868Z,100102.83
2019-02-19T03:54:24.975Z,100103.68
2019-02-19T03:56:52.112Z,100094.88
2019-02-19T03:59:22.122Z,100083.93
2019-02-19T04:01:54.271Z,100087.46
2019-02-19T04:04:21.426Z,100074.70
2019-02-19T04:06:48.588Z,100067.67
2019-02-19T04:09:15.835Z,100058.47
2019-02-19T04:11:45.952Z,100050.21
2019-02-19T04:14:13.240Z,100043.30
2019-02-19T04:16:40.372Z,100035.43
2019-02-19T04:19:10.295Z,100035.43
2019-02-19T04:21:42.171Z,100034.96
2019-02-19T04:24:13.284Z,100033.20
2019-02-19T04:26:43.189Z,100034.12
2019-02-19T04:29:11.660Z,100029.71
2019-02-19T04:31:38.712Z,100026.63
2019-02-19T04:34:05.776Z,100018.30
2019-02-19T04:36:32.847Z,100027.49
2019-02-19T04:38:59.907Z,100024.75
2019-02-19T04:41:26.967Z,100016.36
2019-02-19T04:43:54.030Z,100004.47
2019-02-19T04:46:30.824Z,100002.17
2019-02-19T04:48:50.078Z,99995.04
2019-02-19T04:51:17.140Z,99985.78
2019-02-19T04:53:44.214Z,99979.20
2019-02-19T04:56:11.257Z,99974.80
2019-02-19T04:58:38.343Z,99970.81
2019-02-19T05:01:05.398Z,99968.16
2019-02-19T05:03:32.473Z,99971.53
2019-02-19T05:05:59.542Z,99970.60
2019-02-19T05:08:26.631Z,99973.56
2019-02-19T05:10:53.680Z,99963.89
2019-02-19T05:13:20.775Z,99967.33
2019-02-19T05:15:47.838Z,99964.70
2019-02-19T05:18:14.902Z,99962.91
2019-02-19T05:20:42.003Z,99960.69
2019-02-19T05:23:09.104Z,99962.83
2019-02-19T05:25:36.147Z,99957.07
2019-02-19T05:28:03.215Z,99956.14
2019-02-19T05:30:30.266Z,99956.97
2019-02-19T05:32:57.330Z,99948.64
2019-02-19T05:35:24.380Z,99938.51
2019-02-19T05:37:51.490Z,99935.83
2019-02-19T05:40:18.587Z,99944.09
2019-02-19T05:42:45.665Z,99934.84
2019-02-19T05:45:12.711Z,99922.08
2019-02-19T05:47:39.794Z,99922.48
2019-02-19T05:50:07.155Z,99926.42
2019-02-19T05:52:34.222Z,99923.77
2019-02-19T05:55:02.437Z,99926.78
2019-02-19T05:57:29.520Z,99921.87
2019-02-19T05:59:56.604Z,99924.47
2019-02-19T06:02:24.762Z,99923.50
2019-02-19T06:04:53.566Z,99919.16
2019-02-19T06:07:20.823Z,99915.22
2019-02-19T06:09:48.707Z,99912.99
2019-02-19T06:12:21.571Z,99912.99
2019-02-19T06:14:50.478Z,99916.45
2019-02-19T06:17:24.810Z,99911.20
2019-02-19T06:19:53.671Z,99904.68
2019-02-19T06:22:21.093Z,99903.77
2019-02-19T06:24:49.389Z,99902.48
2019-02-19T06:27:16.533Z,99899.45
2019-02-19T06:29:44.492Z,99889.85
2019-02-19T06:32:14.492Z,99888.53
2019-02-19T06:34:44.309Z,99878.42
2019-02-19T06:37:14.495Z,99882.77
2019-02-19T06:39:44.491Z,99876.20
2019-02-19T06:42:12.943Z,99878.83
2019-02-19T06:44:42.711Z,99866.59
2019-02-19T06:47:12.927Z,99863.97
2019-02-19T06:49:42.416Z,99860.42
2019-02-19T06:52:19.106Z,99859.55
2019-02-19T06:54:49.342Z,99848.97
2019-02-19T06:57:22.975Z,99848.09
2019-02-19T06:59:52.054Z,99847.98
2019-02-19T07:02:58.749Z,99849.27
2019-02-19T07:05:26.831Z,99845.23
2019-02-19T07:07:54.135Z,99840.78
2019-02-19T07:10:21.350Z,99839.89
2019-02-19T07:12:51.510Z,99836.35
2019-02-19T07:15:18.835Z,99835.41
2019-02-19T07:17:47.936Z,99837.04
2019-02-19T07:20:15.172Z,99832.16
2019-02-19T07:22:42.342Z,99819.80
2019-02-19T07:25:14.296Z,99820.23
2019-02-19T07:27:45.302Z,99815.77
2019-02-19T07:30:12.548Z,99817.48
2019-02-19T07:32:42.794Z,99813.91
2019-02-19T07:35:15.173Z,99809.94
2019-02-19T07:37:44.906Z,99810.27
2019-02-19T07:40:12.292Z,99811.09
2019-02-19T07:42:43.459Z,99809.30
2019-02-19T07:45:15.061Z,99815.81
2019-02-19T07:47:42.248Z,99817.50
2019-02-19T07:50:09.434Z,99807.38
2019-02-19T07:52:36.708Z,99809.45
2019-02-19T07:55:07.027Z,99811.59
2019-02-19T07:57:36.121Z,99806.67
2019-02-19T08:00:05.836Z,99800.46
2019-02-19T08:02:33.099Z,99802.14
2019-02-19T08:05:02.917Z,99795.11
2019-02-19T08:07:30.137Z,99791.13
2019-02-19T08:09:57.216Z,99789.30
2019-02-19T08:12:26.232Z,99783.09
2019-02-19T08:14:56.129Z,99780.84
2019-02-19T08:17:33.031Z,99780.45
2019-02-19T08:19:59.680Z,99772.56
2019-02-19T08:22:30.382Z,99769.44
2019-02-19T08:24:57.451Z,99762.30
2019-02-19T08:27:31.203Z,99761.32
2019-02-19T08:29:58.511Z,99758.13
2019-02-19T08:32:25.784Z,99759.88
2019-02-19T08:34:55.615Z,99754.06
2019-02-19T08:37:24.559Z,99753.50
2019-02-19T08:39:51.853Z,99741.13
2019-02-19T08:42:21.174Z,99744.62
2019-02-19T08:44:49.811Z,99745.44
2019-02-19T08:47:19.436Z,99740.14
2019-02-19T08:49:46.695Z,99739.25
2019-02-19T08:52:13.987Z,99734.52
2019-02-19T08:54:41.219Z,99731.89
2019-02-19T08:57:18.920Z,99733.59
2019-02-19T08:59:46.147Z,99724.84
2019-02-19T09:02:13.496Z,99713.36
2019-02-19T09:04:40.871Z,99709.74
2019-02-19T09:07:10.473Z,99702.59
2019-02-19T09:09:39.627Z,99698.61
2019-02-19T09:12:06.837Z,99693.28
2019-02-19T09:14:39.091Z,99685.31
2019-02-19T09:17:08.753Z,99683.50
2019-02-19T09:19:47.464Z,99682.55
2019-02-19T09:22:15.066Z,99685.07
2019-02-19T09:24:42.175Z,99682.77
2019-02-19T09:27:15.863Z,99685.86
2019-02-19T09:29:43.118Z,99678.48
2019-02-19T09:32:10.291Z,99689.88
2019-02-19T09:34:39.489Z,99683.75
2019-02-19T09:37:06.844Z,99668.81
2019-02-19T09:39:38.052Z,99669.70
2019-02-19T09:42:07.848Z,99670.16
2019-02-19T09:44:37.637Z,99671.09
2019-02-19T09:47:11.978Z,99671.13
2019-02-19T09:49:39.114Z,99664.55
2019-02-19T09:52:06.414Z,99657.07
2019-02-19T09:54:33.533Z,99654.90
2019-02-19T09:57:00.810Z,99648.64
2019-02-19T09:59:30.359Z,99643.69
2019-02-19T10:02:00.199Z,99641.91
2019-02-19T10:04:30.369Z,99634.87
2019-02-19T10:06:59.952Z,99629.95
2019-02-19T10:09:29.955Z,99634.80
2019-02-19T10:11:57.036Z,99636.08
2019-02-19T10:14:24.110Z,99628.18
2019-02-19T10:16:51.187Z,99625.08
2019-02-19T10:19:18.301Z,99630.34
2019-02-19T10:21:45.797Z,99629.95
2019-02-19T10:24:12.927Z,99625.13
2019-02-19T10:26:40.703Z,99619.86
2019-02-19T10:29:10.890Z,99617.64
2019-02-19T10:31:37.957Z,99618.39
2019-02-19T10:34:05.052Z,99612.66
2019-02-19T10:36:32.122Z,99606.47
2019-02-19T10:38:59.175Z,99599.11
2019-02-19T10:41:26.284Z,99599.50
2019-02-19T10:43:53.340Z,99592.45
2019-02-19T10:46:20.426Z,99588.04
2019-02-19T10:48:47.486Z,99590.28
2019-02-19T10:51:14.552Z,99587.58
2019-02-19T10:53:41.630Z,99587.92
2019-02-19T10:56:08.688Z,99583.48
2019-02-19T10:58:35.757Z,99575.46
2019-02-19T11:01:02.833Z,99565.70
2019-02-19T11:03:29.946Z,99563.03
2019-02-19T11:05:56.979Z,99564.39
2019-02-19T11:08:24.045Z,99561.72
2019-02-19T11:10:51.115Z,99552.15
2019-02-19T11:13:18.238Z,99552.96
2019-02-19T11:15:45.343Z,99554.28
2019-02-19T11:18:12.456Z,99550.19
2019-02-19T11:20:39.493Z,99548.47
2019-02-19T11:23:06.614Z,99543.20
2019-02-19T11:25:33.703Z,99543.59
2019-02-19T11:28:00.778Z,99537.02
2019-02-19T11:30:27.864Z,99533.02
2019-02-19T11:32:54.923Z,99534.69
2019-02-19T11:35:22.052Z,99533.37
2019-02-19T11:37:49.132Z,99528.09
2019-02-19T11:40:16.190Z,99523.22
2019-02-19T11:42:43.286Z,99526.13
2019-02-19T11:45:11.859Z,99517.38
2019-02-19T11:47:38.929Z,99505.41
2019-02-19T11:50:06.051Z,99504.94
2019-02-19T11:52:33.149Z,99496.91
2019-02-19T11:55:00.384Z,99485.41
2019-02-19T11:57:27.501Z,99479.01
2019-02-19T11:59:54.582Z,99475.40
2019-02-19T12:02:21.649Z,99476.13
2019-02-19T12:04:48.727Z,99464.61
2019-02-19T12:07:15.810Z,99474.57
2019-02-19T12:09:42.871Z,99466.00
2019-02-19T12:12:09.949Z,99467.19
2019-02-19T12:14:37.133Z,99467.61
2019-02-19T12:17:04.209Z,99457.06
2019-02-19T12:19:31.271Z,99466.60
2019-02-19T12:21:58.346Z,99456.87
2019-02-19T12:24:25.414Z,99455.94
2019-02-19T12:26:52.488Z,99451.94
2019-02-19T12:29:19.586Z,99451.00
2019-02-19T12:31:46.687Z,99443.95
2019-02-19T12:34:13.753Z,99436.77
2019-02-19T12:36:40.870Z,99428.94
2019-02-19T12:39:07.932Z,99419.70
2019-02-19T12:41:35.035Z,99413.97
2019-02-19T12:44:02.104Z,99418.27
2019-02-19T12:46:29.183Z,99413.89
2019-02-19T12:48:56.251Z,99406.78
2019-02-19T12:51:26.425Z,99411.93
2019-02-19T12:53:52.331Z,99407.05
2019-02-19T12:56:19.403Z,99402.95
2019-02-19T12:58:46.468Z,99401.17
2019-02-19T13:01:13.543Z,99399.80
2019-02-19T13:03:40.612Z,99399.34
2019-02-19T13:06:07.743Z,99398.79
2019-02-19T13:08:34.819Z,99389.05
2019-02-19T13:11:01.883Z,99385.34
2019-02-19T13:13:28.962Z,99380.88
2019-02-19T13:15:56.024Z,99379.08
2019-02-19T13:18:23.106Z,99374.33
2019-02-19T13:20:50.177Z,99363.73
2019-02-19T13:23:17.259Z,99357.19
2019-02-19T13:25:44.331Z,99358.04
2019-02-19T13:28:11.395Z,99365.05
2019-02-19T13:30:38.466Z,99361.48
2019-02-19T13:33:05.559Z,99363.18
2019-02-19T13:35:32.627Z,99355.41
2019-02-19T13:37:59.717Z,99352.77
2019-02-19T13:40:26.796Z,99351.86
2019-02-19T13:42:53.865Z,99346.59
2019-02-19T13:45:20.943Z,99349.23
2019-02-19T13:47:48.010Z,99352.52
2019-02-19T13:50:16.752Z,99350.42
2019-02-19T13:53:06.704Z,99346.05
2019-02-19T13:55:36.693Z,99347.38
2019-02-19T13:58:03.754Z,99340.40
2019-02-19T14:00:32.524Z,99343.97
2019-02-19T14:02:59.579Z,99341.98
2019-02-19T14:05:26.657Z,99350.11
2019-02-19T14:07:53.763Z,99347.94
2019-02-19T14:10:20.894Z,99341.34
2019-02-19T14:12:47.992Z,99340.41
2019-02-19T14:15:26.682Z,99340.93
2019-02-19T14:17:53.835Z,99342.92
2019-02-19T14:20:49.638Z,99348.33
2019-02-19T14:23:33.823Z,99342.20
2019-02-19T14:26:41.028Z,99334.69
2019-02-19T14:29:33.791Z,99327.11
2019-02-19T14:32:19.064Z,99330.55
2019-02-19T14:34:57.763Z,99332.77
2019-02-19T14:37:51.976Z,99323.16
2019-02-19T14:40:31.290Z,99321.84
2019-02-19T14:43:16.708Z,99315.77
2019-02-19T14:46:03.351Z,99314.06
2019-02-19T14:48:52.636Z,99312.11
2019-02-19T14:51:31.158Z,99307.82
2019-02-19T14:54:20.687Z,99319.73
2019-02-19T14:57:06.004Z,99315.66
2019-02-19T14:59:52.685Z,99328.58
2019-02-19T15:02:38.209Z,99321.86
2019-02-19T15:05:40.151Z,99326.14
2019-02-19T15:08:36.047Z,99319.61
2019-02-19T15:11:31.499Z,99325.88
2019-02-19T15:14:20.896Z,99324.74
2019-02-19T15:17:01.492Z,99330.68
2019-02-19T15:19:45.292Z,99331.31
2019-02-19T15:22:44.175Z,99329.01
2019-02-19T15:25:29.480Z,99331.72
2019-02-19T15:28:19.203Z,99335.20
2019-02-19T15:31:11.755Z,99328.67
2019-02-19T15:33:57.148Z,99324.33
2019-02-19T15:36:42.542Z,99322.75
2019-02-19T15:39:29.182Z,99323.12
2019-02-19T15:42:14.571Z,99324.30
2019-02-19T15:45:04.242Z,99319.92
2019-02-19T15:48:09.103Z,99315.55
2019-02-19T15:50:54.487Z,99320.05
2019-02-19T15:53:34.680Z,99318.77
2019-02-19T15:56:26.003Z,99326.02
2019-02-19T15:59:11.479Z,99324.86
2019-02-19T16:01:58.130Z,99316.96
2019-02-19T16:04:43.649Z,99318.16
2019-02-19T16:07:29.804Z,99319.82
2019-02-19T16:10:02.952Z,99320.75
2019-02-19T16:12:52.436Z,99316.06
2019-02-19T16:15:28.234Z,99317.38
2019-02-19T16:18:24.302Z,99312.97
2019-02-19T16:20:57.202Z,99319.09
2019-02-19T16:23:46.944Z,99312.63
2019-02-19T16:26:39.680Z,99313.67
2019-02-19T16:29:13.475Z,99309.73
2019-02-19T16:31:50.637Z,99301.83
2019-02-19T16:34:34.639Z,99300.52
2019-02-19T16:37:13.362Z,99297.89
2019-02-19T16:39:48.352Z,99296.69
2019-02-19T16:42:43.876Z,99288.88
2019-02-19T16:45:28.679Z,99289.45
2019-02-19T16:48:14.444Z,99289.97
2019-02-19T16:51:10.448Z,99287.99
2019-02-19T16:53:53.390Z,99291.52
2019-02-19T16:56:44.934Z,99286.33
2019-02-19T16:59:42.591Z,99280.61
2019-02-19T17:02:26.481Z,99280.99
2019-02-19T17:05:11.805Z,99283.16
2019-02-19T17:07:57.232Z,99277.86
2019-02-19T17:10:30.537Z,99271.32
2019-02-19T17:13:16.204Z,99272.20
2019-02-19T17:16:01.988Z,99278.70
2019-02-19T17:19:00.829Z,99274.84
2019-02-19T17:21:39.238Z,99265.79
2019-02-19T17:24:22.445Z,99276.44
2019-02-19T17:27:15.495Z,99276.13
2019-02-19T17:30:04.294Z,99267.80
2019-02-19T17:32:50.428Z,99273.06
2019-02-19T17:35:32.517Z,99279.98
2019-02-19T17:38:35.572Z,99269.55
2019-02-19T17:41:28.421Z,99269.93
2019-02-19T17:44:06.836Z,99267.30
2019-02-19T17:47:01.066Z,99273.06
2019-02-19T17:49:46.369Z,99276.16
2019-02-19T17:52:39.045Z,99273.53
2019-02-19T17:55:26.387Z,99272.72
2019-02-19T17:58:20.027Z,99278.52
2019-02-19T18:00:57.640Z,99267.15
2019-02-19T18:03:45.619Z,99265.56
2019-02-19T18:06:22.132Z,99271.21
2019-02-19T18:09:20.980Z,99273.03
2019-02-19T18:11:54.049Z,99272.25
2019-02-19T18:14:43.436Z,99272.21
2019-02-19T18:17:38.271Z,99276.77
2019-02-19T18:20:05.742Z,99274.05
2019-02-19T18:22:35.249Z,99268.33
2019-02-19T18:25:05.291Z,99270.22
2019-02-19T18:27:32.398Z,99271.98
2019-02-19T18:29:59.507Z,99265.06
2019-02-19T18:32:26.835Z,99264.68
2019-02-19T18:34:54.163Z,99274.38
2019-02-19T18:37:24.994Z,99268.27
2019-02-19T18:39:57.084Z,99267.53
2019-02-19T18:42:24.142Z,99268.91
2019-02-19T18:44:51.246Z,99270.16
2019-02-19T18:47:18.477Z,99268.45
2019-02-19T18:49:45.549Z,99271.54
2019-02-19T18:52:12.643Z,99260.64
2019-02-19T18:54:40.441Z,99268.91
2019-02-19T18:57:07.508Z,99274.20
2019-02-19T19:00:08.496Z,99268.95
2019-02-19T19:02:35.728Z,99274.63
2019-02-19T19:05:35.239Z,99265.75
2019-02-19T19:08:19.562Z,99262.70
2019-02-19T19:10:46.679Z,99275.02
2019-02-19T19:13:45.144Z,99269.77
2019-02-19T19:16:12.860Z,99276.05
2019-02-19T19:18:40.139Z,99276.66
2019-02-19T19:21:09.187Z,99281.13
2019-02-19T19:23:39.042Z,99281.62
2019-02-19T19:26:08.755Z,99283.05
2019-02-19T19:28:39.459Z,99281.34
2019-02-19T19:31:06.816Z,99278.33
2019-02-19T19:33:34.144Z,99282.77
2019-02-19T19:36:03.769Z,99280.21
2019-02-19T19:38:33.858Z,99282.77
2019-02-19T19:41:01.854Z,99281.56
2019-02-19T19:43:31.539Z,99276.87
2019-02-19T19:46:00.267Z,99275.63
2019-02-19T19:48:40.487Z,99272.13
2019-02-19T19:51:17.094Z,99277.37
2019-02-19T19:53:39.899Z,99273.05
2019-02-19T19:56:07.168Z,99274.81
2019-02-19T19:58:41.475Z,99280.99
2019-02-19T20:01:11.033Z,99287.56
2019-02-19T20:03:38.528Z,99278.36
2019-02-19T20:06:10.500Z,99275.74
2019-02-19T20:08:45.509Z,99277.05
2019-02-19T20:11:15.512Z,99273.89
2019-02-19T20:13:44.995Z,99279.22
2019-02-19T20:16:13.681Z,99273.11
2019-02-19T20:18:42.141Z,99269.56
2019-02-19T20:21:09.414Z,99269.50
2019-02-19T20:23:36.673Z,99271.27
2019-02-19T20:26:05.650Z,99273.89
2019-02-19T20:28:45.072Z,99268.61
2019-02-19T20:31:19.037Z,99272.55
2019-02-19T20:33:56.809Z,99273.01
2019-02-19T20:36:24.151Z,99278.19
2019-02-19T20:38:53.727Z,99277.73
2019-02-19T20:41:25.803Z,99277.73
2019-02-19T20:43:59.402Z,99277.27
2019-02-19T20:46:29.614Z,99281.62
2019-02-19T20:48:57.192Z,99281.62
2019-02-19T20:51:36.109Z,99277.59
2019-02-19T20:54:02.422Z,99285.39
2019-02-19T20:56:31.833Z,99292.42
2019-02-19T20:59:01.707Z,99295.09
2019-02-19T21:01:32.703Z,99290.30
2019-02-19T21:04:02.099Z,99295.09
2019-02-19T21:06:29.230Z,99286.78
2019-02-19T21:08:59.365Z,99295.97
2019-02-19T21:11:30.215Z,99299.03
2019-02-19T21:14:00.472Z,99304.74
2019-02-19T21:16:27.698Z,99308.22
2019-02-19T21:18:57.201Z,99312.16
2019-02-19T21:21:28.495Z,99308.69
2019-02-19T21:23:55.568Z,99312.16
2019-02-19T21:26:28.259Z,99305.20
2019-02-19T21:28:57.027Z,99312.16
2019-02-19T21:31:26.119Z,99314.78
2019-02-19T21:33:56.254Z,99318.34
2019-02-19T21:36:26.615Z,99316.63
2019-02-19T21:38:56.411Z,99318.86
2019-02-19T21:41:26.615Z,99314.04
2019-02-19T21:43:58.070Z,99310.98
2019-02-19T21:46:30.287Z,99313.55
2019-02-19T21:48:57.544Z,99322.34
2019-02-19T21:51:27.772Z,99318.44
2019-02-19T21:53:58.907Z,99324.55
2019-02-19T21:56:33.421Z,99325.86
2019-02-19T21:59:00.718Z,99329.38
2019-02-19T22:01:28.308Z,99330.72
2019-02-19T22:03:55.382Z,99338.14
2019-02-19T22:06:22.562Z,99337.78
2019-02-19T22:08:51.092Z,99338.31
2019-02-19T22:11:29.518Z,99337.03
2019-02-19T22:13:56.645Z,99333.72
2019-02-19T22:16:24.001Z,99337.30
2019-02-19T22:18:53.593Z,99335.30
2019-02-19T22:21:32.493Z,99333.24
2019-02-19T22:24:04.821Z,99336.42
2019-02-19T22:26:34.844Z,99337.02
2019-02-19T22:29:02.102Z,99344.14
2019-02-19T22:31:29.240Z,99346.08
2019-02-19T22:33:58.745Z,99347.59
2019-02-19T22:36:27.834Z,99345.55
2019-02-19T22:39:02.419Z,99347.94
2019-02-19T22:41:32.372Z,99346.82
2019-02-19T22:44:02.051Z,99343.27
2019-02-19T22:46:34.445Z,99365.47
2019-02-19T22:49:03.239Z,99368.25
2019-02-19T22:51:30.455Z,99371.91
2019-02-19T22:54:02.844Z,99371.61
2019-02-19T22:56:33.176Z,99376.48
2019-02-19T22:59:02.287Z,99370.53
2019-02-19T23:01:32.602Z,99367.61
2019-02-19T23:04:04.442Z,99364.16
2019-02-19T23:06:34.076Z,99368.19
2019-02-19T23:09:05.122Z,99357.76
2019-02-19T23:11:32.227Z,99356.53
2019-02-19T23:13:59.585Z,99360.50
2019-02-19T23:16:29.005Z,99355.34
2019-02-19T23:18:56.176Z,99362.81
2019-02-19T23:21:25.070Z,99360.67
2019-02-19T23:23:52.214Z,99358.56
2019-02-19T23:26:19.723Z,99364.36
2019-02-19T23:28:49.613Z,99364.38
2019-02-19T23:31:18.441Z,99373.25
2019-02-19T23:33:48.605Z,99369.86
2019-02-19T23:36:20.020Z,99374.25
2019-02-19T23:38:47.240Z,99372.11
2019-02-19T23:41:18.723Z,99379.17
2019-02-19T23:43:47.704Z,99382.34
2019-02-19T23:46:27.215Z,99394.22
2019-02-19T23:49:04.823Z,99401.77
2019-02-19T23:51:31.798Z,99402.70
2019-02-19T23:53:58.855Z,99413.20
2019-02-19T23:56:28.979Z,99415.50
2019-02-19T23:59:01.860Z,99414.25
